< < Back
Terminal Aerodrome Forecast


Current Version              Previous Versions:   1  2  3  4  5  6  7  8  9  

Terminal Aerodrome Forecast

570
FTUS42 KJAX 020500
TAFSSI
TAF
KSSI 020540Z 0206/0306 23005KT P6SM FEW050 BKN250
     FM021500 16006KT P6SM VCTS SCT030CB SCT250
     FM021900 13010KT P6SM FEW040 BKN250=

Latest METAR

258
SAUS70 KWBC 021700 RRJ
MTRSSI
METAR KSSI 021653Z AUTO 14008KT 10SM FEW060 31/24 A3008 RMK AO2 LTG DSNT
N AND NW SLP187 T03110244


USA.gov is the U.S. government's official web portal to all federal, state and local government web resources and services.